createdAt,value
2019-05-26T00:01:07.106Z,9.71
2019-05-26T00:03:39.822Z,9.72
2019-05-26T00:06:11.512Z,9.67
2019-05-26T00:08:41.561Z,9.67
2019-05-26T00:11:12.910Z,9.64
2019-05-26T00:13:45.232Z,9.66
2019-05-26T00:16:17.260Z,9.70
2019-05-26T00:18:47.258Z,9.70
2019-05-26T00:21:17.245Z,9.67
2019-05-26T00:23:50.866Z,9.54
2019-05-26T00:26:20.942Z,9.52
2019-05-26T00:28:51.104Z,9.57
2019-05-26T00:31:22.484Z,9.57
2019-05-26T00:33:53.076Z,9.53
2019-05-26T00:36:26.011Z,9.55
2019-05-26T00:38:57.743Z,9.63
2019-05-26T00:41:27.721Z,9.64
2019-05-26T00:44:01.394Z,9.70
2019-05-26T00:46:32.059Z,9.70
2019-05-26T00:49:02.431Z,9.61
2019-05-26T00:51:32.503Z,9.53
2019-05-26T00:54:03.163Z,9.42
2019-05-26T00:56:33.715Z,9.38
2019-05-26T00:59:06.871Z,9.45
2019-05-26T01:01:36.856Z,9.41
2019-05-26T01:04:06.937Z,9.43
2019-05-26T01:06:41.389Z,9.34
2019-05-26T01:09:12.009Z,9.38
2019-05-26T01:11:43.053Z,9.47
2019-05-26T01:14:14.602Z,9.49
2019-05-26T01:16:44.829Z,9.49
2019-05-26T01:19:16.369Z,9.44
2019-05-26T01:21:47.883Z,9.37
2019-05-26T01:24:18.218Z,9.36
2019-05-26T01:26:48.231Z,9.30
2019-05-26T01:29:18.293Z,9.29
2019-05-26T01:31:48.305Z,9.28
2019-05-26T01:34:25.177Z,9.29
2019-05-26T01:36:55.880Z,9.30
2019-05-26T01:39:26.209Z,9.31
2019-05-26T01:41:56.219Z,9.31
2019-05-26T01:44:26.385Z,9.32
2019-05-26T01:47:05.459Z,9.34
2019-05-26T01:49:36.584Z,9.36
2019-05-26T01:52:07.274Z,9.37
2019-05-26T01:54:40.579Z,9.38
2019-05-26T01:57:11.711Z,9.35
2019-05-26T01:59:45.677Z,9.34
2019-05-26T02:02:19.206Z,9.34
2019-05-26T02:04:49.204Z,9.37
2019-05-26T02:07:22.267Z,9.39
2019-05-26T02:09:53.245Z,9.42
2019-05-26T02:12:23.338Z,9.45
2019-05-26T02:14:53.842Z,9.48
2019-05-26T02:17:23.987Z,9.48
2019-05-26T02:19:53.989Z,9.50
2019-05-26T02:22:24.040Z,9.51
2019-05-26T02:24:55.121Z,9.51
2019-05-26T02:27:27.802Z,9.50
2019-05-26T02:29:58.263Z,9.49
2019-05-26T02:32:28.195Z,9.47
2019-05-26T02:34:58.482Z,9.46
2019-05-26T02:37:30.586Z,9.46
2019-05-26T02:40:00.589Z,9.46
2019-05-26T02:42:30.745Z,9.48
2019-05-26T02:45:00.746Z,9.48
2019-05-26T02:47:32.110Z,9.47
2019-05-26T02:50:02.169Z,9.50
2019-05-26T02:52:35.236Z,9.50
2019-05-26T02:55:08.298Z,9.50
2019-05-26T02:57:39.934Z,9.51
2019-05-26T03:00:13.414Z,9.52
2019-05-26T03:02:43.869Z,9.55
2019-05-26T03:05:16.008Z,9.58
2019-05-26T03:07:46.299Z,9.58
2019-05-26T03:10:18.300Z,9.60
2019-05-26T03:12:50.711Z,9.58
2019-05-26T03:15:23.081Z,9.62
2019-05-26T03:17:58.406Z,9.64
2019-05-26T03:20:30.785Z,9.66
2019-05-26T03:23:03.295Z,9.72
2019-05-26T03:25:35.179Z,9.75
2019-05-26T03:28:08.560Z,9.79
2019-05-26T03:30:38.669Z,9.85
2019-05-26T03:33:11.567Z,9.95
2019-05-26T03:35:41.674Z,10.00
2019-05-26T03:38:12.158Z,10.07
2019-05-26T03:40:42.146Z,10.07
2019-05-26T03:43:12.268Z,10.14
2019-05-26T03:45:47.366Z,10.12
2019-05-26T03:48:17.285Z,10.13
2019-05-26T03:50:50.305Z,10.18
2019-05-26T03:53:20.331Z,10.18
2019-05-26T03:55:53.300Z,10.22
2019-05-26T03:58:23.317Z,10.27
2019-05-26T04:00:54.864Z,10.28
2019-05-26T04:03:25.353Z,10.31
2019-05-26T04:05:55.350Z,10.34
2019-05-26T04:08:25.446Z,10.37
2019-05-26T04:10:55.464Z,10.43
2019-05-26T04:13:25.458Z,10.43
2019-05-26T04:15:55.477Z,10.47
2019-05-26T04:18:28.591Z,10.47
2019-05-26T04:20:58.601Z,10.54
2019-05-26T04:23:28.674Z,10.59
2019-05-26T04:25:58.663Z,10.61
2019-05-26T04:28:28.681Z,10.60
2019-05-26T04:30:58.696Z,10.66
2019-05-26T04:33:28.686Z,10.68
2019-05-26T04:35:58.706Z,10.69
2019-05-26T04:38:28.715Z,10.77
2019-05-26T04:41:00.372Z,10.79
2019-05-26T04:43:30.377Z,10.86
2019-05-26T04:46:00.582Z,10.86
2019-05-26T04:48:31.076Z,10.94
2019-05-26T04:51:01.776Z,10.92
2019-05-26T04:53:31.766Z,11.04
2019-05-26T04:56:01.861Z,11.13
2019-05-26T04:58:31.851Z,11.21
2019-05-26T05:01:01.934Z,11.31
2019-05-26T05:03:32.516Z,11.32
2019-05-26T05:06:02.515Z,11.44
2019-05-26T05:08:32.916Z,11.46
2019-05-26T05:11:02.928Z,11.51
2019-05-26T05:13:32.928Z,11.49
2019-05-26T05:16:02.954Z,11.49
2019-05-26T05:18:32.967Z,11.55
2019-05-26T05:21:02.978Z,11.58
2019-05-26T05:23:32.977Z,11.73
2019-05-26T05:26:02.995Z,11.73
2019-05-26T05:28:32.996Z,11.79
2019-05-26T05:31:03.022Z,11.88
2019-05-26T05:33:33.012Z,11.92
2019-05-26T05:36:03.020Z,11.97
2019-05-26T05:38:33.018Z,12.05
2019-05-26T05:41:03.057Z,12.09
2019-05-26T05:43:33.043Z,12.15
2019-05-26T05:46:03.159Z,12.28
2019-05-26T05:48:33.210Z,12.36
2019-05-26T05:51:03.237Z,12.49
2019-05-26T05:53:33.242Z,12.58
2019-05-26T05:56:03.548Z,12.76
2019-05-26T05:58:33.622Z,12.98
2019-05-26T06:01:03.707Z,13.20
2019-05-26T06:03:33.718Z,13.40
2019-05-26T06:06:03.814Z,13.59
2019-05-26T06:08:33.825Z,13.81
2019-05-26T06:11:16.050Z,14.03
2019-05-26T06:13:35.595Z,14.16
2019-05-26T06:16:05.613Z,14.28
2019-05-26T06:18:35.622Z,14.39
2019-05-26T06:21:05.888Z,14.41
2019-05-26T06:23:36.998Z,14.54
2019-05-26T06:26:10.975Z,14.69
2019-05-26T06:28:40.994Z,14.75
2019-05-26T06:31:11.019Z,14.84
2019-05-26T06:33:41.095Z,14.92
2019-05-26T06:36:11.112Z,14.97
2019-05-26T06:38:41.102Z,15.02
2019-05-26T06:41:11.120Z,15.02
2019-05-26T06:43:43.076Z,14.96
2019-05-26T06:46:13.387Z,14.99
2019-05-26T06:48:44.470Z,14.96
2019-05-26T06:51:14.666Z,14.97
2019-05-26T06:53:49.029Z,15.01
2019-05-26T06:56:19.080Z,15.05
2019-05-26T06:58:50.619Z,15.08
2019-05-26T07:01:20.645Z,15.22
2019-05-26T07:03:50.630Z,15.26
2019-05-26T07:06:20.745Z,15.34
2019-05-26T07:08:50.733Z,15.32
2019-05-26T07:11:22.287Z,15.43
2019-05-26T07:13:55.538Z,15.47
2019-05-26T07:16:37.516Z,15.47
2019-05-26T07:19:00.271Z,15.49
2019-05-26T07:21:33.219Z,15.59
2019-05-26T07:24:06.849Z,15.72
2019-05-26T07:26:39.832Z,15.88
2019-05-26T07:29:09.842Z,16.01
2019-05-26T07:31:41.476Z,16.15
2019-05-26T07:34:11.512Z,16.14
2019-05-26T07:36:41.494Z,16.20
2019-05-26T07:39:11.509Z,16.26
2019-05-26T07:41:41.646Z,16.36
2019-05-26T07:44:11.671Z,16.46
2019-05-26T07:46:41.699Z,16.35
2019-05-26T07:49:11.799Z,16.43
2019-05-26T07:51:43.881Z,16.46
2019-05-26T07:54:24.998Z,16.66
2019-05-26T07:56:46.790Z,16.89
2019-05-26T07:59:16.836Z,16.88
2019-05-26T08:01:46.894Z,16.80
2019-05-26T08:04:20.272Z,16.79
2019-05-26T08:06:50.379Z,16.83
2019-05-26T08:09:20.391Z,16.88
2019-05-26T08:11:51.930Z,16.93
2019-05-26T08:14:21.950Z,17.13
2019-05-26T08:16:55.138Z,17.24
2019-05-26T08:19:25.938Z,17.54
2019-05-26T08:21:55.961Z,17.80
2019-05-26T08:24:26.058Z,17.88
2019-05-26T08:26:56.534Z,18.11
2019-05-26T08:29:26.566Z,18.39
2019-05-26T08:31:56.604Z,18.62
2019-05-26T08:34:26.702Z,18.79
2019-05-26T08:36:56.708Z,18.92
2019-05-26T08:39:26.811Z,18.85
2019-05-26T08:41:56.811Z,18.82
2019-05-26T08:44:30.496Z,18.53
2019-05-26T08:47:00.493Z,18.54
2019-05-26T08:49:30.576Z,18.58
2019-05-26T08:52:03.727Z,18.67
2019-05-26T08:54:34.280Z,18.73
2019-05-26T08:57:04.352Z,18.92
2019-05-26T08:59:35.995Z,19.01
2019-05-26T09:02:06.007Z,18.98
2019-05-26T09:04:39.365Z,19.18
2019-05-26T09:07:09.997Z,19.26
2019-05-26T09:09:40.027Z,19.36
2019-05-26T09:12:12.011Z,19.60
2019-05-26T09:14:43.944Z,19.82
2019-05-26T09:17:16.608Z,19.98
2019-05-26T09:19:49.629Z,20.07
2019-05-26T09:22:21.471Z,20.02
2019-05-26T09:24:51.455Z,20.01
2019-05-26T09:27:23.809Z,20.16
2019-05-26T09:29:54.373Z,20.24
2019-05-26T09:32:25.993Z,20.09
2019-05-26T09:34:58.701Z,20.05
2019-05-26T09:37:29.783Z,20.00
2019-05-26T09:40:02.585Z,20.06
2019-05-26T09:42:36.179Z,20.10
2019-05-26T09:45:10.818Z,20.00
2019-05-26T09:47:41.036Z,19.93
2019-05-26T09:50:14.583Z,19.49
2019-05-26T09:52:47.670Z,19.33
2019-05-26T09:55:22.453Z,19.27
2019-05-26T09:57:52.592Z,19.18
2019-05-26T10:00:22.842Z,19.31
2019-05-26T10:02:52.847Z,19.31
2019-05-26T10:05:27.365Z,19.42
2019-05-26T10:07:57.442Z,19.61
2019-05-26T10:10:28.978Z,19.73
2019-05-26T10:12:59.060Z,19.81
2019-05-26T10:15:35.094Z,19.72
2019-05-26T10:18:05.237Z,19.69
2019-05-26T10:20:38.553Z,19.70
2019-05-26T10:23:11.598Z,19.83
2019-05-26T10:25:48.349Z,19.97
2019-05-26T10:28:22.402Z,20.04
2019-05-26T10:30:56.931Z,20.08
2019-05-26T10:33:28.475Z,20.06
2019-05-26T10:35:58.564Z,20.14
2019-05-26T10:38:28.908Z,20.20
2019-05-26T10:41:00.416Z,20.26
2019-05-26T10:43:30.528Z,20.26
2019-05-26T10:46:00.587Z,20.36
2019-05-26T10:48:30.603Z,20.54
2019-05-26T10:51:00.597Z,20.79
2019-05-26T10:53:30.620Z,20.80
2019-05-26T10:56:00.719Z,21.08
2019-05-26T10:58:30.736Z,21.27
2019-05-26T11:01:00.766Z,21.06
2019-05-26T11:03:30.769Z,21.08
2019-05-26T11:06:00.856Z,21.30
2019-05-26T11:08:30.851Z,21.28
2019-05-26T11:11:01.119Z,21.33
2019-05-26T11:13:32.318Z,21.30
2019-05-26T11:16:02.399Z,21.27
2019-05-26T11:18:32.522Z,21.27
2019-05-26T11:21:02.577Z,21.43
2019-05-26T11:23:32.594Z,21.67
2019-05-26T11:26:02.615Z,21.54
2019-05-26T11:28:32.641Z,21.41
2019-05-26T11:31:05.877Z,21.30
2019-05-26T11:33:35.964Z,21.16
2019-05-26T11:36:07.593Z,21.12
2019-05-26T11:38:37.772Z,21.12
2019-05-26T11:41:07.814Z,21.15
2019-05-26T11:43:37.807Z,21.07
2019-05-26T11:46:07.828Z,21.13
2019-05-26T11:48:39.358Z,21.12
2019-05-26T11:51:09.738Z,21.06
2019-05-26T11:53:40.575Z,20.88
2019-05-26T11:56:10.575Z,20.98
2019-05-26T11:58:40.608Z,20.99
2019-05-26T12:01:12.214Z,21.12
2019-05-26T12:03:43.844Z,21.15
2019-05-26T12:06:13.966Z,21.12
2019-05-26T12:08:45.478Z,21.21
2019-05-26T12:11:15.496Z,21.28
2019-05-26T12:13:45.500Z,21.26
2019-05-26T12:16:18.326Z,21.34
2019-05-26T12:18:49.508Z,21.49
2019-05-26T12:21:19.799Z,21.58
2019-05-26T12:23:54.675Z,21.76
2019-05-26T12:26:23.326Z,21.75
2019-05-26T12:28:53.346Z,21.75
2019-05-26T12:31:23.372Z,21.82
2019-05-26T12:33:53.375Z,21.77
2019-05-26T12:36:23.435Z,21.63
2019-05-26T12:38:53.394Z,21.55
2019-05-26T12:41:23.636Z,21.58
2019-05-26T12:43:58.234Z,21.68
2019-05-26T12:46:29.241Z,21.62
2019-05-26T12:48:59.242Z,21.49
2019-05-26T12:51:32.393Z,21.67
2019-05-26T12:54:02.461Z,21.84
2019-05-26T12:56:32.479Z,21.98
2019-05-26T12:59:02.554Z,22.13
2019-05-26T13:01:32.546Z,21.93
2019-05-26T13:04:07.114Z,21.93
2019-05-26T13:06:37.107Z,21.98
2019-05-26T13:09:10.162Z,22.06
2019-05-26T13:11:40.248Z,22.15
2019-05-26T13:14:10.275Z,22.11
2019-05-26T13:16:40.549Z,22.39
2019-05-26T13:19:10.593Z,22.33
2019-05-26T13:21:40.607Z,22.38
2019-05-26T13:24:10.924Z,22.38
2019-05-26T13:26:40.942Z,22.52
2019-05-26T13:29:11.418Z,22.65
2019-05-26T13:31:41.505Z,22.47
2019-05-26T13:34:11.676Z,22.56
2019-05-26T13:36:41.705Z,22.61
2019-05-26T13:39:11.829Z,22.56
2019-05-26T13:41:41.955Z,22.61
2019-05-26T13:44:12.521Z,22.81
2019-05-26T13:46:43.037Z,22.74
2019-05-26T13:49:13.099Z,22.61
2019-05-26T13:51:44.825Z,22.57
2019-05-26T13:54:14.921Z,22.39
2019-05-26T13:56:45.591Z,22.49
2019-05-26T13:59:16.035Z,22.49
2019-05-26T14:01:46.022Z,22.45
2019-05-26T14:04:16.040Z,22.66
2019-05-26T14:06:46.113Z,22.79
2019-05-26T14:09:16.218Z,22.84
2019-05-26T14:11:46.319Z,22.95
2019-05-26T14:14:16.882Z,23.09
2019-05-26T14:16:49.139Z,23.36
2019-05-26T14:19:21.377Z,23.77
2019-05-26T14:21:53.184Z,23.98
2019-05-26T14:24:23.267Z,23.67
2019-05-26T14:26:56.127Z,23.62
2019-05-26T14:29:26.288Z,23.55
2019-05-26T14:31:56.284Z,23.51
2019-05-26T14:34:26.311Z,23.35
2019-05-26T14:36:56.463Z,23.35
2019-05-26T14:39:26.489Z,23.42
2019-05-26T14:41:58.000Z,23.44
2019-05-26T14:44:28.017Z,23.53
2019-05-26T14:46:59.958Z,23.72
2019-05-26T14:49:30.098Z,23.70
2019-05-26T14:52:00.095Z,23.52
2019-05-26T14:54:34.483Z,23.54
2019-05-26T14:57:04.550Z,23.59
2019-05-26T14:59:34.644Z,23.51
2019-05-26T15:02:04.741Z,23.48
2019-05-26T15:04:34.834Z,23.49
2019-05-26T15:07:05.007Z,23.51
2019-05-26T15:09:35.109Z,23.33
2019-05-26T15:12:07.622Z,23.39
2019-05-26T15:14:37.642Z,23.27
2019-05-26T15:17:07.809Z,23.11
2019-05-26T15:19:38.205Z,23.15
2019-05-26T15:22:08.276Z,23.08
2019-05-26T15:24:38.295Z,23.05
2019-05-26T15:27:08.298Z,23.17
2019-05-26T15:29:41.561Z,23.21
2019-05-26T15:32:13.149Z,23.09
2019-05-26T15:34:43.161Z,23.31
2019-05-26T15:37:13.167Z,23.24
2019-05-26T15:39:43.183Z,23.32
2019-05-26T15:42:13.301Z,23.34
2019-05-26T15:44:43.303Z,23.20
2019-05-26T15:47:13.571Z,22.94
2019-05-26T15:49:43.612Z,22.90
2019-05-26T15:52:13.608Z,22.89
2019-05-26T15:54:43.782Z,23.01
2019-05-26T15:57:13.823Z,22.97
2019-05-26T15:59:46.451Z,23.00
2019-05-26T16:02:16.716Z,22.81
2019-05-26T16:04:46.895Z,22.72
2019-05-26T16:07:16.937Z,22.64
2019-05-26T16:09:47.061Z,22.66
2019-05-26T16:12:17.134Z,22.61
2019-05-26T16:14:47.419Z,22.63
2019-05-26T16:17:17.586Z,22.50
2019-05-26T16:19:47.722Z,22.47
2019-05-26T16:22:17.918Z,22.35
2019-05-26T16:24:47.967Z,22.34
2019-05-26T16:27:20.073Z,22.29
2019-05-26T16:29:50.227Z,22.22
2019-05-26T16:32:24.648Z,22.23
2019-05-26T16:34:54.726Z,22.22
2019-05-26T16:37:24.739Z,22.21
2019-05-26T16:39:55.987Z,22.26
2019-05-26T16:42:26.301Z,22.23
2019-05-26T16:44:56.243Z,22.25
2019-05-26T16:47:26.354Z,22.14
2019-05-26T16:49:57.860Z,22.04
2019-05-26T16:52:30.205Z,21.98
2019-05-26T16:55:00.171Z,21.95
2019-05-26T16:57:30.185Z,21.84
2019-05-26T17:00:02.057Z,21.68
2019-05-26T17:02:32.360Z,21.69
2019-05-26T17:05:02.361Z,21.85
2019-05-26T17:07:35.017Z,22.00
2019-05-26T17:10:09.037Z,22.07
2019-05-26T17:12:39.125Z,21.91
2019-05-26T17:15:09.624Z,21.88
2019-05-26T17:17:40.298Z,21.80
2019-05-26T17:20:11.325Z,21.75
2019-05-26T17:22:44.578Z,21.71
2019-05-26T17:25:20.213Z,21.62
2019-05-26T17:27:46.962Z,21.61
2019-05-26T17:30:22.001Z,21.53
2019-05-26T17:32:51.320Z,21.42
2019-05-26T17:35:26.474Z,21.44
2019-05-26T17:37:58.770Z,21.39
2019-05-26T17:40:30.450Z,21.35
2019-05-26T17:43:00.469Z,21.31
2019-05-26T17:45:30.462Z,21.31
2019-05-26T17:48:00.540Z,21.22
2019-05-26T17:50:30.570Z,21.16
2019-05-26T17:53:00.634Z,21.11
2019-05-26T17:55:30.735Z,21.07
2019-05-26T17:58:00.798Z,21.04
2019-05-26T18:00:35.247Z,21.00
2019-05-26T18:03:09.085Z,21.00
2019-05-26T18:05:40.745Z,20.92
2019-05-26T18:08:10.880Z,20.92
2019-05-26T18:10:41.036Z,20.90
2019-05-26T18:13:11.193Z,20.85
2019-05-26T18:15:42.322Z,20.79
2019-05-26T18:18:12.348Z,20.74
2019-05-26T18:20:42.503Z,20.67
2019-05-26T18:23:12.529Z,20.65
2019-05-26T18:25:45.689Z,20.60
2019-05-26T18:28:18.541Z,20.52
2019-05-26T18:30:51.250Z,20.54
2019-05-26T18:33:21.256Z,20.44
2019-05-26T18:35:53.005Z,20.46
2019-05-26T18:38:23.186Z,20.44
2019-05-26T18:40:53.222Z,20.41
2019-05-26T18:43:23.441Z,20.40
2019-05-26T18:45:53.446Z,20.36
2019-05-26T18:48:26.622Z,20.32
2019-05-26T18:50:56.689Z,20.28
2019-05-26T18:53:29.704Z,20.27
2019-05-26T18:55:58.542Z,20.23
2019-05-26T18:58:28.571Z,20.24
2019-05-26T19:00:58.632Z,20.20
2019-05-26T19:03:28.666Z,20.20
2019-05-26T19:05:58.722Z,20.16
2019-05-26T19:08:28.748Z,20.12
2019-05-26T19:10:58.761Z,20.10
2019-05-26T19:13:30.209Z,20.09
2019-05-26T19:16:00.231Z,20.13
2019-05-26T19:18:30.299Z,20.06
2019-05-26T19:21:02.728Z,20.09
2019-05-26T19:23:32.864Z,20.08
2019-05-26T19:26:03.200Z,20.08
2019-05-26T19:28:33.611Z,20.06
2019-05-26T19:31:06.656Z,19.98
2019-05-26T19:33:36.657Z,19.95
2019-05-26T19:36:09.280Z,19.95
2019-05-26T19:38:38.795Z,19.95
2019-05-26T19:41:09.242Z,19.94
2019-05-26T19:43:39.485Z,19.89
2019-05-26T19:46:09.513Z,19.84
2019-05-26T19:48:42.664Z,19.86
2019-05-26T19:51:12.677Z,19.80
2019-05-26T19:53:42.845Z,19.78
2019-05-26T19:56:12.939Z,19.77
2019-05-26T19:58:43.005Z,19.80
2019-05-26T20:01:14.704Z,19.79
2019-05-26T20:03:44.698Z,19.77
2019-05-26T20:06:15.851Z,19.73
2019-05-26T20:08:45.774Z,19.70
2019-05-26T20:11:17.917Z,19.70
2019-05-26T20:13:47.943Z,19.75
2019-05-26T20:16:18.152Z,19.69
2019-05-26T20:18:48.310Z,19.71
2019-05-26T20:21:18.318Z,19.66
2019-05-26T20:23:48.415Z,19.70
2019-05-26T20:26:24.543Z,19.68
2019-05-26T20:28:54.575Z,19.65
2019-05-26T20:31:24.797Z,19.60
2019-05-26T20:33:57.844Z,19.60
2019-05-26T20:36:30.548Z,19.62
2019-05-26T20:39:00.599Z,19.58
2019-05-26T20:41:30.966Z,19.55
2019-05-26T20:44:00.985Z,19.57
2019-05-26T20:46:31.163Z,19.52
2019-05-26T20:49:01.157Z,19.51
2019-05-26T20:51:33.347Z,19.48
2019-05-26T20:54:03.365Z,19.46
2019-05-26T20:56:33.404Z,19.47
2019-05-26T20:59:03.567Z,19.46
2019-05-26T21:01:33.526Z,19.44
2019-05-26T21:04:06.231Z,19.42
2019-05-26T21:06:36.526Z,19.38
2019-05-26T21:09:11.896Z,19.37
2019-05-26T21:11:45.032Z,19.39
2019-05-26T21:14:15.074Z,19.36
2019-05-26T21:16:49.855Z,19.32
2019-05-26T21:19:19.876Z,19.30
2019-05-26T21:21:50.452Z,19.28
2019-05-26T21:24:20.508Z,19.22
2019-05-26T21:26:51.383Z,19.20
2019-05-26T21:29:21.396Z,19.21
2019-05-26T21:31:51.476Z,19.18
2019-05-26T21:34:21.664Z,19.16
2019-05-26T21:36:51.672Z,19.16
2019-05-26T21:39:21.703Z,19.19
2019-05-26T21:41:51.713Z,19.18
2019-05-26T21:44:21.739Z,19.16
2019-05-26T21:46:55.464Z,19.12
2019-05-26T21:49:28.517Z,19.11
2019-05-26T21:52:00.042Z,19.08
2019-05-26T21:54:30.056Z,19.03
2019-05-26T21:57:00.056Z,19.03
2019-05-26T21:59:30.073Z,19.02
2019-05-26T22:02:01.921Z,19.04
2019-05-26T22:04:33.509Z,19.06
2019-05-26T22:07:03.586Z,19.03
2019-05-26T22:09:34.469Z,18.97
2019-05-26T22:12:08.981Z,18.98
2019-05-26T22:14:39.045Z,18.96
2019-05-26T22:17:12.222Z,19.00
2019-05-26T22:19:42.630Z,19.00
2019-05-26T22:22:12.651Z,18.90
2019-05-26T22:24:43.132Z,18.93
2019-05-26T22:27:13.146Z,18.89
2019-05-26T22:29:43.137Z,18.89
2019-05-26T22:32:13.162Z,18.88
2019-05-26T22:34:43.152Z,18.89
2019-05-26T22:37:13.250Z,18.88
2019-05-26T22:39:43.233Z,18.84
2019-05-26T22:42:13.252Z,18.81
2019-05-26T22:44:43.272Z,18.81
2019-05-26T22:47:13.284Z,18.83
2019-05-26T22:49:44.584Z,18.87
2019-05-26T22:52:17.686Z,18.82
2019-05-26T22:54:46.372Z,18.82
2019-05-26T22:57:16.374Z,18.77
2019-05-26T22:59:46.372Z,18.78
2019-05-26T23:02:16.371Z,18.75
2019-05-26T23:04:46.363Z,18.75
2019-05-26T23:07:17.887Z,18.70
2019-05-26T23:09:47.905Z,18.67
2019-05-26T23:12:17.930Z,18.70
2019-05-26T23:14:51.041Z,18.71
2019-05-26T23:17:21.036Z,18.65
2019-05-26T23:19:51.121Z,18.66
2019-05-26T23:22:21.117Z,18.65
2019-05-26T23:24:51.531Z,18.59
2019-05-26T23:27:21.501Z,18.58
2019-05-26T23:29:51.895Z,18.54
2019-05-26T23:32:24.302Z,18.52
2019-05-26T23:34:54.101Z,18.50
2019-05-26T23:37:25.229Z,18.48
2019-05-26T23:39:55.256Z,18.45
2019-05-26T23:42:28.234Z,18.45
2019-05-26T23:44:58.258Z,18.43
2019-05-26T23:47:29.988Z,18.46
2019-05-26T23:49:59.977Z,18.46
2019-05-26T23:52:29.992Z,18.41
2019-05-26T23:54:59.978Z,18.39
2019-05-26T23:57:29.996Z,18.41
